sensor_id;sensor_type;location;lat;lon;timestamp;pressure;altitude;pressure_sealevel;temperature;humidity
71938;BME280;59810;48.800;9.086;2022-09-20T00:01:13;98126.84;;;9.27;85.76
71938;BME280;59810;48.800;9.086;2022-09-20T00:03:44;98122.53;;;9.26;89.20
71938;BME280;59810;48.800;9.086;2022-09-20T00:06:12;98123.56;;;9.25;88.01
71938;BME280;59810;48.800;9.086;2022-09-20T00:08:39;98117.00;;;9.21;88.54
71938;BME280;59810;48.800;9.086;2022-09-20T00:11:13;98115.72;;;9.24;85.72
71938;BME280;59810;48.800;9.086;2022-09-20T00:13:41;98108.69;;;9.23;84.13
71938;BME280;59810;48.800;9.086;2022-09-20T00:16:12;98121.69;;;9.26;84.12
71938;BME280;59810;48.800;9.086;2022-09-20T00:18:40;98117.72;;;9.28;83.04
71938;BME280;59810;48.800;9.086;2022-09-20T00:21:05;98119.38;;;9.29;81.85
71938;BME280;59810;48.800;9.086;2022-09-20T00:23:33;98116.44;;;9.31;82.15
71938;BME280;59810;48.800;9.086;2022-09-20T00:26:02;98114.56;;;9.31;82.57
71938;BME280;59810;48.800;9.086;2022-09-20T00:28:30;98126.75;;;9.34;82.28
71938;BME280;59810;48.800;9.086;2022-09-20T00:30:56;98110.34;;;9.24;85.72
71938;BME280;59810;48.800;9.086;2022-09-20T00:33:24;98115.84;;;9.29;84.95
71938;BME280;59810;48.800;9.086;2022-09-20T00:36:12;98118.41;;;9.24;86.03
71938;BME280;59810;48.800;9.086;2022-09-20T00:38:38;98118.06;;;9.20;88.08
71938;BME280;59810;48.800;9.086;2022-09-20T00:41:03;98117.81;;;9.22;86.64
71938;BME280;59810;48.800;9.086;2022-09-20T00:43:43;98113.50;;;9.21;84.94
71938;BME280;59810;48.800;9.086;2022-09-20T00:48:42;98110.78;;;9.21;83.69
71938;BME280;59810;48.800;9.086;2022-09-20T00:51:13;98117.00;;;9.21;83.54
71938;BME280;59810;48.800;9.086;2022-09-20T00:53:45;98117.81;;;9.22;83.37
71938;BME280;59810;48.800;9.086;2022-09-20T00:56:47;98116.19;;;9.21;83.26
71938;BME280;59810;48.800;9.086;2022-09-20T00:59:30;98117.47;;;9.18;84.85
71938;BME280;59810;48.800;9.086;2022-09-20T01:02:01;98121.44;;;9.16;83.46
71938;BME280;59810;48.800;9.086;2022-09-20T01:04:28;98111.47;;;9.16;83.17
71938;BME280;59810;48.800;9.086;2022-09-20T01:06:57;98118.75;;;9.16;83.46
71938;BME280;59810;48.800;9.086;2022-09-20T01:09:25;98110.97;;;9.08;86.44
71938;BME280;59810;48.800;9.086;2022-09-20T01:11:51;98109.31;;;9.07;85.50
71938;BME280;59810;48.800;9.086;2022-09-20T01:14:18;98114.13;;;9.04;84.71
71938;BME280;59810;48.800;9.086;2022-09-20T01:16:46;98113.53;;;9.02;86.15
71938;BME280;59810;48.800;9.086;2022-09-20T01:19:35;98114.44;;;8.96;86.22
71938;BME280;59810;48.800;9.086;2022-09-20T01:22:05;98111.50;;;8.98;85.18
71938;BME280;59810;48.800;9.086;2022-09-20T01:24:43;98116.66;;;8.99;84.44
71938;BME280;59810;48.800;9.086;2022-09-20T01:27:43;98117.50;;;9.00;83.29
71938;BME280;59810;48.800;9.086;2022-09-20T01:32:44;98104.84;;;9.00;82.00
71938;BME280;59810;48.800;9.086;2022-09-20T01:35:15;98105.66;;;9.01;81.98
71938;BME280;59810;48.800;9.086;2022-09-20T01:37:53;98105.44;;;9.02;81.54
71938;BME280;59810;48.800;9.086;2022-09-20T01:40:31;98105.22;;;9.04;81.96
71938;BME280;59810;48.800;9.086;2022-09-20T01:45:45;98111.78;;;9.08;81.27
71938;BME280;59810;48.800;9.086;2022-09-20T01:48:38;98105.16;;;9.11;80.88
71938;BME280;59810;48.800;9.086;2022-09-20T02:12:53;98096.53;;;9.32;80.66
71938;BME280;59810;48.800;9.086;2022-09-20T02:15:38;98096.06;;;9.35;81.34
71938;BME280;59810;48.800;9.086;2022-09-20T02:24:44;98096.78;;;9.42;81.28
71938;BME280;59810;48.800;9.086;2022-09-20T02:29:51;98111.31;;;9.41;79.78
71938;BME280;59810;48.800;9.086;2022-09-20T02:40:18;98109.41;;;9.30;81.56
71938;BME280;59810;48.800;9.086;2022-09-20T02:42:57;98112.94;;;9.30;82.04
71938;BME280;59810;48.800;9.086;2022-09-20T02:48:23;98106.13;;;9.28;81.98
71938;BME280;59810;48.800;9.086;2022-09-20T02:51:13;98101.66;;;9.22;82.69
71938;BME280;59810;48.800;9.086;2022-09-20T02:56:41;98098.16;;;9.21;80.83
71938;BME280;59810;48.800;9.086;2022-09-20T03:02:21;98112.78;;;9.25;79.71
71938;BME280;59810;48.800;9.086;2022-09-20T03:05:09;98108.00;;;9.27;79.70
71938;BME280;59810;48.800;9.086;2022-09-20T03:08:03;98108.81;;;9.28;79.29
71938;BME280;59810;48.800;9.086;2022-09-20T03:10:43;98112.22;;;9.23;79.21
71938;BME280;59810;48.800;9.086;2022-09-20T03:27:02;98124.66;;;9.36;80.30
71938;BME280;59810;48.800;9.086;2022-09-20T03:34:59;98125.84;;;9.40;81.19
71938;BME280;59810;48.800;9.086;2022-09-20T03:46:28;98117.09;;;9.45;78.02
71938;BME280;59810;48.800;9.086;2022-09-20T03:51:26;98119.31;;;9.48;78.10
71938;BME280;59810;48.800;9.086;2022-09-20T03:59:26;98127.16;;;9.49;78.77
71938;BME280;59810;48.800;9.086;2022-09-20T04:04:34;98137.72;;;9.51;78.76
71938;BME280;59810;48.800;9.086;2022-09-20T04:07:13;98141.69;;;9.48;79.10
71938;BME280;59810;48.800;9.086;2022-09-20T04:09:55;98136.91;;;9.50;79.16
71938;BME280;59810;48.800;9.086;2022-09-20T04:18:15;98136.44;;;9.53;79.21
71938;BME280;59810;48.800;9.086;2022-09-20T04:20:50;98141.59;;;9.55;79.79
71938;BME280;59810;48.800;9.086;2022-09-20T04:25:50;98140.91;;;9.59;81.93
71938;BME280;59810;48.800;9.086;2022-09-20T04:28:27;98146.28;;;9.59;81.12
71938;BME280;59810;48.800;9.086;2022-09-20T04:31:04;98150.03;;;9.58;81.41
71938;BME280;59810;48.800;9.086;2022-09-20T04:33:40;98142.88;;;9.52;82.44
71938;BME280;59810;48.800;9.086;2022-09-20T04:42:29;98152.06;;;9.33;85.74
71938;BME280;59810;48.800;9.086;2022-09-20T04:45:45;98154.97;;;9.31;86.40
71938;BME280;59810;48.800;9.086;2022-09-20T04:53:01;98153.91;;;9.21;88.11
71938;BME280;59810;48.800;9.086;2022-09-20T05:09:55;98181.44;;;9.04;88.18
71938;BME280;59810;48.800;9.086;2022-09-20T05:12:36;98184.72;;;9.07;88.35
71938;BME280;59810;48.800;9.086;2022-09-20T05:18:34;98177.03;;;9.10;89.16
71938;BME280;59810;48.800;9.086;2022-09-20T05:29:09;98179.44;;;9.00;88.45
71938;BME280;59810;48.800;9.086;2022-09-20T05:31:40;98191.25;;;8.99;88.80
71938;BME280;59810;48.800;9.086;2022-09-20T05:34:19;98189.25;;;8.94;89.02
71938;BME280;59810;48.800;9.086;2022-09-20T05:37:03;98188.44;;;8.94;89.29
71938;BME280;59810;48.800;9.086;2022-09-20T05:42:24;98190.59;;;8.85;89.36
71938;BME280;59810;48.800;9.086;2022-09-20T06:01:01;98205.69;;;9.04;89.04
71938;BME280;59810;48.800;9.086;2022-09-20T06:03:47;98206.28;;;9.07;88.77
71938;BME280;59810;48.800;9.086;2022-09-20T06:09:12;98206.44;;;9.12;88.65
71938;BME280;59810;48.800;9.086;2022-09-20T06:14:59;98217.59;;;9.15;87.92
71938;BME280;59810;48.800;9.086;2022-09-20T06:17:35;98210.09;;;9.17;88.03
71938;BME280;59810;48.800;9.086;2022-09-20T06:20:21;98214.22;;;9.20;88.58
71938;BME280;59810;48.800;9.086;2022-09-20T06:22:51;98204.94;;;9.16;88.78
71938;BME280;59810;48.800;9.086;2022-09-20T06:27:55;98208.69;;;9.15;88.15
71938;BME280;59810;48.800;9.086;2022-09-20T06:30:33;98213.03;;;9.16;87.88
71938;BME280;59810;48.800;9.086;2022-09-20T06:33:13;98205.19;;;9.14;88.17
71938;BME280;59810;48.800;9.086;2022-09-20T06:36:02;98210.34;;;9.16;88.25
71938;BME280;59810;48.800;9.086;2022-09-20T06:41:52;98219.00;;;9.18;88.52
71938;BME280;59810;48.800;9.086;2022-09-20T06:44:18;98219.59;;;9.20;88.65
71938;BME280;59810;48.800;9.086;2022-09-20T06:46:43;98221.84;;;9.23;89.81
71938;BME280;59810;48.800;9.086;2022-09-20T06:49:11;98225.13;;;9.25;89.31
71938;BME280;59810;48.800;9.086;2022-09-20T06:51:37;98231.34;;;9.25;89.06
71938;BME280;59810;48.800;9.086;2022-09-20T06:54:04;98237.31;;;9.27;89.03
71938;BME280;59810;48.800;9.086;2022-09-20T06:56:32;98231.34;;;9.25;88.94
71938;BME280;59810;48.800;9.086;2022-09-20T06:59:01;98229.84;;;9.29;90.90
71938;BME280;59810;48.800;9.086;2022-09-20T07:01:27;98230.88;;;9.28;88.23
71938;BME280;59810;48.800;9.086;2022-09-20T07:03:59;98229.59;;;9.31;87.16
71938;BME280;59810;48.800;9.086;2022-09-20T07:06:27;98234.44;;;9.41;85.45
71938;BME280;59810;48.800;9.086;2022-09-20T07:08:53;98247.88;;;9.47;86.45
71938;BME280;59810;48.800;9.086;2022-09-20T07:11:18;98241.56;;;9.53;86.16
71938;BME280;59810;48.800;9.086;2022-09-20T07:13:49;98233.38;;;9.60;84.38
71938;BME280;59810;48.800;9.086;2022-09-20T07:16:18;98233.88;;;9.68;84.20
71938;BME280;59810;48.800;9.086;2022-09-20T07:18:44;98231.06;;;9.75;84.59
71938;BME280;59810;48.800;9.086;2022-09-20T07:21:11;98230.78;;;9.83;84.52
71938;BME280;59810;48.800;9.086;2022-09-20T07:23:36;98238.75;;;9.90;85.49
71938;BME280;59810;48.800;9.086;2022-09-20T07:26:04;98245.31;;;9.94;83.28
71938;BME280;59810;48.800;9.086;2022-09-20T07:28:33;98245.69;;;9.97;82.82
71938;BME280;59810;48.800;9.086;2022-09-20T07:30:59;98256.72;;;10.08;82.70
71938;BME280;59810;48.800;9.086;2022-09-20T07:33:25;98251.25;;;10.14;82.55
71938;BME280;59810;48.800;9.086;2022-09-20T07:35:52;98248.25;;;10.22;82.26
71938;BME280;59810;48.800;9.086;2022-09-20T07:38:21;98253.28;;;10.31;82.73
71938;BME280;59810;48.800;9.086;2022-09-20T07:41:01;98250.13;;;10.34;83.03
71938;BME280;59810;48.800;9.086;2022-09-20T07:43:27;98262.69;;;10.40;82.02
71938;BME280;59810;48.800;9.086;2022-09-20T07:45:56;98258.50;;;10.44;79.81
71938;BME280;59810;48.800;9.086;2022-09-20T07:48:30;98258.59;;;10.49;78.45
71938;BME280;59810;48.800;9.086;2022-09-20T07:51:00;98263.06;;;10.55;77.97
71938;BME280;59810;48.800;9.086;2022-09-20T07:53:26;98259.31;;;10.56;78.25
71938;BME280;59810;48.800;9.086;2022-09-20T07:55:59;98265.88;;;10.60;77.71
71938;BME280;59810;48.800;9.086;2022-09-20T07:58:26;98264.34;;;10.64;76.85
71938;BME280;59810;48.800;9.086;2022-09-20T08:00:53;98270.00;;;10.63;75.85
71938;BME280;59810;48.800;9.086;2022-09-20T08:03:22;98272.81;;;10.68;76.81
71938;BME280;59810;48.800;9.086;2022-09-20T08:05:48;98275.41;;;10.74;79.88
71938;BME280;59810;48.800;9.086;2022-09-20T08:08:17;98280.94;;;10.79;79.24
71938;BME280;59810;48.800;9.086;2022-09-20T08:10:43;98277.38;;;10.90;80.13
71938;BME280;59810;48.800;9.086;2022-09-20T08:13:11;98280.06;;;11.02;77.47
71938;BME280;59810;48.800;9.086;2022-09-20T08:15:37;98273.38;;;11.05;74.61
71938;BME280;59810;48.800;9.086;2022-09-20T08:18:02;98278.56;;;10.95;73.98
71938;BME280;59810;48.800;9.086;2022-09-20T08:20:28;98279.28;;;10.90;74.87
71938;BME280;59810;48.800;9.086;2022-09-20T08:22:53;98283.75;;;10.84;75.29
71938;BME280;59810;48.800;9.086;2022-09-20T08:25:19;98290.19;;;10.83;78.65
71938;BME280;59810;48.800;9.086;2022-09-20T08:27:51;98283.28;;;10.87;78.94
71938;BME280;59810;48.800;9.086;2022-09-20T08:30:17;98285.50;;;10.90;76.54
71938;BME280;59810;48.800;9.086;2022-09-20T08:32:43;98286.06;;;10.93;73.50
71938;BME280;59810;48.800;9.086;2022-09-20T08:35:08;98293.22;;;10.99;73.78
71938;BME280;59810;48.800;9.086;2022-09-20T08:37:38;98291.94;;;11.13;72.51
71938;BME280;59810;48.800;9.086;2022-09-20T08:40:03;98289.81;;;11.15;71.13
71938;BME280;59810;48.800;9.086;2022-09-20T08:42:32;98288.59;;;11.34;74.39
71938;BME280;59810;48.800;9.086;2022-09-20T08:45:03;98281.16;;;11.53;76.15
71938;BME280;59810;48.800;9.086;2022-09-20T08:47:35;98290.69;;;11.56;71.55
71938;BME280;59810;48.800;9.086;2022-09-20T08:50:09;98292.31;;;11.57;70.06
71938;BME280;59810;48.800;9.086;2022-09-20T08:52:36;98291.22;;;11.69;70.30
71938;BME280;59810;48.800;9.086;2022-09-20T08:55:16;98293.56;;;11.77;70.09
71938;BME280;59810;48.800;9.086;2022-09-20T08:57:42;98290.72;;;11.84;72.38
71938;BME280;59810;48.800;9.086;2022-09-20T09:00:20;98286.38;;;11.83;68.38
71938;BME280;59810;48.800;9.086;2022-09-20T09:02:49;98294.41;;;11.78;69.55
71938;BME280;59810;48.800;9.086;2022-09-20T09:05:31;98288.50;;;11.81;71.47
71938;BME280;59810;48.800;9.086;2022-09-20T09:07:59;98291.78;;;11.83;70.72
71938;BME280;59810;48.800;9.086;2022-09-20T09:10:38;98281.31;;;11.87;70.55
71938;BME280;59810;48.800;9.086;2022-09-20T09:13:05;98291.22;;;11.81;70.30
71938;BME280;59810;48.800;9.086;2022-09-20T09:15:35;98292.28;;;11.80;69.95
71938;BME280;59810;48.800;9.086;2022-09-20T09:18:04;98284.63;;;11.77;68.22
71938;BME280;59810;48.800;9.086;2022-09-20T09:20:39;98293.09;;;11.80;68.41
71938;BME280;59810;48.800;9.086;2022-09-20T09:23:07;98279.56;;;11.80;69.34
71938;BME280;59810;48.800;9.086;2022-09-20T09:25:38;98277.28;;;11.89;69.87
71938;BME280;59810;48.800;9.086;2022-09-20T09:35:53;98269.97;;;12.35;65.40
71938;BME280;59810;48.800;9.086;2022-09-20T09:38:22;98265.00;;;12.43;63.92
71938;BME280;59810;48.800;9.086;2022-09-20T09:40:54;98275.81;;;12.43;65.47
71938;BME280;59810;48.800;9.086;2022-09-20T09:43:22;98273.16;;;12.32;64.51
71938;BME280;59810;48.800;9.086;2022-09-20T09:45:51;98272.84;;;12.28;62.73
71938;BME280;59810;48.800;9.086;2022-09-20T09:48:26;98274.47;;;12.29;64.52
71938;BME280;59810;48.800;9.086;2022-09-20T09:51:18;98277.44;;;12.28;65.85
71938;BME280;59810;48.800;9.086;2022-09-20T09:53:46;98281.03;;;12.17;64.80
71938;BME280;59810;48.800;9.086;2022-09-20T09:56:38;98274.00;;;12.32;65.19
71938;BME280;59810;48.800;9.086;2022-09-20T09:59:25;98271.72;;;12.41;66.01
71938;BME280;59810;48.800;9.086;2022-09-20T10:04:58;98272.22;;;12.38;63.71
71938;BME280;59810;48.800;9.086;2022-09-20T10:10:21;98266.47;;;12.51;64.21
71938;BME280;59810;48.800;9.086;2022-09-20T10:13:12;98269.25;;;12.73;62.58
71938;BME280;59810;48.800;9.086;2022-09-20T10:18:18;98276.13;;;12.81;62.32
71938;BME280;59810;48.800;9.086;2022-09-20T10:21:07;98275.28;;;12.97;62.24
71938;BME280;59810;48.800;9.086;2022-09-20T10:23:46;98266.78;;;13.10;62.94
71938;BME280;59810;48.800;9.086;2022-09-20T10:29:17;98269.13;;;13.01;61.03
71938;BME280;59810;48.800;9.086;2022-09-20T10:32:21;98261.66;;;12.92;60.36
71938;BME280;59810;48.800;9.086;2022-09-20T10:37:53;98274.41;;;12.74;63.80
71938;BME280;59810;48.800;9.086;2022-09-20T10:46:42;98269.00;;;12.74;59.34
71938;BME280;59810;48.800;9.086;2022-09-20T10:49:20;98274.25;;;12.81;58.96
71938;BME280;59810;48.800;9.086;2022-09-20T11:08:19;98272.16;;;13.92;55.12
71938;BME280;59810;48.800;9.086;2022-09-20T11:11:16;98264.16;;;14.35;54.34
71938;BME280;59810;48.800;9.086;2022-09-20T11:16:34;98266.91;;;14.67;52.72
71938;BME280;59810;48.800;9.086;2022-09-20T11:19:11;98257.78;;;14.88;51.82
71938;BME280;59810;48.800;9.086;2022-09-20T11:21:53;98271.16;;;14.57;54.06
71938;BME280;59810;48.800;9.086;2022-09-20T11:27:27;98274.19;;;13.80;54.98
71938;BME280;59810;48.800;9.086;2022-09-20T11:30:15;98274.63;;;13.67;56.58
71938;BME280;59810;48.800;9.086;2022-09-20T11:40:34;98274.75;;;13.33;60.96
71938;BME280;59810;48.800;9.086;2022-09-20T11:43:03;98270.03;;;13.29;60.82
71938;BME280;59810;48.800;9.086;2022-09-20T11:45:31;98270.44;;;13.37;61.97
71938;BME280;59810;48.800;9.086;2022-09-20T11:48:35;98274.88;;;13.44;59.33
71938;BME280;59810;48.800;9.086;2022-09-20T11:57:26;98265.31;;;13.63;56.48
71938;BME280;59810;48.800;9.086;2022-09-20T11:59:57;98257.16;;;13.63;52.80
71938;BME280;59810;48.800;9.086;2022-09-20T12:02:50;98255.56;;;13.89;53.26
71938;BME280;59810;48.800;9.086;2022-09-20T12:05:41;98252.84;;;14.16;54.95
71938;BME280;59810;48.800;9.086;2022-09-20T12:08:21;98252.63;;;14.49;51.10
71938;BME280;59810;48.800;9.086;2022-09-20T12:10:59;98250.50;;;14.56;50.58
71938;BME280;59810;48.800;9.086;2022-09-20T12:13:32;98241.09;;;14.69;49.74
71938;BME280;59810;48.800;9.086;2022-09-20T12:16:14;98237.75;;;14.99;50.44
71938;BME280;59810;48.800;9.086;2022-09-20T12:21:19;98234.34;;;15.97;48.23
71938;BME280;59810;48.800;9.086;2022-09-20T12:36:39;98225.09;;;16.94;46.83
71938;BME280;59810;48.800;9.086;2022-09-20T12:44:36;98212.41;;;17.34;44.38
71938;BME280;59810;48.800;9.086;2022-09-20T12:58:15;98209.97;;;17.87;39.99
71938;BME280;59810;48.800;9.086;2022-09-20T13:00:48;98222.72;;;17.47;42.26
71938;BME280;59810;48.800;9.086;2022-09-20T13:05:48;98224.31;;;16.33;44.74
71938;BME280;59810;48.800;9.086;2022-09-20T13:08:19;98228.91;;;16.02;46.62
71938;BME280;59810;48.800;9.086;2022-09-20T13:10:59;98227.47;;;15.74;47.34
71938;BME280;59810;48.800;9.086;2022-09-20T13:16:18;98222.47;;;14.93;51.40
71938;BME280;59810;48.800;9.086;2022-09-20T13:18:47;98231.72;;;14.92;50.18
71938;BME280;59810;48.800;9.086;2022-09-20T13:21:14;98230.53;;;14.78;50.54
71938;BME280;59810;48.800;9.086;2022-09-20T13:23:47;98231.50;;;14.61;51.55
71938;BME280;59810;48.800;9.086;2022-09-20T13:26:14;98233.41;;;14.61;50.70
71938;BME280;59810;48.800;9.086;2022-09-20T13:28:48;98227.16;;;14.60;48.67
71938;BME280;59810;48.800;9.086;2022-09-20T13:31:30;98231.44;;;14.51;50.37
71938;BME280;59810;48.800;9.086;2022-09-20T13:34:33;98231.88;;;14.38;51.74
71938;BME280;59810;48.800;9.086;2022-09-20T13:37:00;98232.03;;;14.26;52.33
71938;BME280;59810;48.800;9.086;2022-09-20T13:39:32;98235.00;;;14.25;51.97
71938;BME280;59810;48.800;9.086;2022-09-20T13:42:14;98230.00;;;14.12;53.04
71938;BME280;59810;48.800;9.086;2022-09-20T13:44:43;98225.59;;;14.06;54.26
71938;BME280;59810;48.800;9.086;2022-09-20T13:47:27;98230.91;;;13.95;54.04
71938;BME280;59810;48.800;9.086;2022-09-20T13:52:51;98237.44;;;13.94;56.09
71938;BME280;59810;48.800;9.086;2022-09-20T13:55:37;98242.66;;;13.74;57.33
71938;BME280;59810;48.800;9.086;2022-09-20T13:58:16;98248.97;;;13.58;57.99
71938;BME280;59810;48.800;9.086;2022-09-20T14:00:45;98255.06;;;13.43;57.92
71938;BME280;59810;48.800;9.086;2022-09-20T14:03:15;98254.59;;;13.29;58.60
71938;BME280;59810;48.800;9.086;2022-09-20T14:05:45;98256.69;;;13.22;58.78
71938;BME280;59810;48.800;9.086;2022-09-20T14:08:18;98252.69;;;13.08;57.67
71938;BME280;59810;48.800;9.086;2022-09-20T14:10:49;98262.78;;;12.96;58.31
71938;BME280;59810;48.800;9.086;2022-09-20T14:13:28;98251.28;;;13.05;59.40
71938;BME280;59810;48.800;9.086;2022-09-20T14:15:57;98258.44;;;12.95;59.43
71938;BME280;59810;48.800;9.086;2022-09-20T14:18:22;98249.81;;;12.98;58.22
71938;BME280;59810;48.800;9.086;2022-09-20T14:20:51;98251.63;;;12.92;56.51
71938;BME280;59810;48.800;9.086;2022-09-20T14:23:21;98247.28;;;12.91;56.66
71938;BME280;59810;48.800;9.086;2022-09-20T14:28:31;98238.19;;;12.81;56.01
71938;BME280;59810;48.800;9.086;2022-09-20T14:31:05;98239.84;;;12.82;56.48
71938;BME280;59810;48.800;9.086;2022-09-20T14:33:39;98236.88;;;12.83;56.30
71938;BME280;59810;48.800;9.086;2022-09-20T14:36:12;98241.78;;;12.86;54.94
71938;BME280;59810;48.800;9.086;2022-09-20T14:38:38;98237.69;;;12.84;56.15
71938;BME280;59810;48.800;9.086;2022-09-20T14:41:03;98243.19;;;12.89;56.60
71938;BME280;59810;48.800;9.086;2022-09-20T14:46:02;98235.69;;;12.96;57.77
71938;BME280;59810;48.800;9.086;2022-09-20T14:56:40;98239.59;;;13.44;56.13
71938;BME280;59810;48.800;9.086;2022-09-20T14:59:20;98232.63;;;14.01;53.21
71938;BME280;59810;48.800;9.086;2022-09-20T15:02:12;98218.34;;;14.43;52.49
71938;BME280;59810;48.800;9.086;2022-09-20T15:04:39;98235.75;;;15.32;51.22
71938;BME280;59810;48.800;9.086;2022-09-20T15:07:07;98231.81;;;15.70;48.13
71938;BME280;59810;48.800;9.086;2022-09-20T15:09:34;98227.84;;;16.28;45.49
71938;BME280;59810;48.800;9.086;2022-09-20T15:12:11;98228.94;;;16.42;44.60
71938;BME280;59810;48.800;9.086;2022-09-20T15:14:37;98224.25;;;16.89;42.92
71938;BME280;59810;48.800;9.086;2022-09-20T15:17:04;98218.44;;;17.31;42.10
71938;BME280;59810;48.800;9.086;2022-09-20T15:19:30;98220.81;;;17.48;41.77
71938;BME280;59810;48.800;9.086;2022-09-20T15:21:58;98228.31;;;17.11;43.88
71938;BME280;59810;48.800;9.086;2022-09-20T15:24:23;98230.34;;;17.50;41.11
71938;BME280;59810;48.800;9.086;2022-09-20T15:26:51;98225.78;;;17.35;40.50
71938;BME280;59810;48.800;9.086;2022-09-20T15:29:19;98229.44;;;16.95;41.37
71938;BME280;59810;48.800;9.086;2022-09-20T15:31:46;98237.34;;;17.02;41.13
71938;BME280;59810;48.800;9.086;2022-09-20T15:34:14;98227.16;;;17.33;41.16
71938;BME280;59810;48.800;9.086;2022-09-20T15:36:40;98224.84;;;17.55;40.32
71938;BME280;59810;48.800;9.086;2022-09-20T15:39:08;98223.31;;;17.34;40.73
71938;BME280;59810;48.800;9.086;2022-09-20T15:41:36;98227.81;;;16.84;41.44
71938;BME280;59810;48.800;9.086;2022-09-20T15:44:05;98222.38;;;16.59;42.66
71938;BME280;59810;48.800;9.086;2022-09-20T15:46:31;98223.47;;;16.93;42.11
71938;BME280;59810;48.800;9.086;2022-09-20T15:49:00;98226.44;;;16.97;40.40
71938;BME280;59810;48.800;9.086;2022-09-20T15:51:27;98213.25;;;17.29;40.55
71938;BME280;59810;48.800;9.086;2022-09-20T15:53:57;98221.38;;;17.39;40.50
71938;BME280;59810;48.800;9.086;2022-09-20T15:56:34;98217.78;;;17.49;40.79
71938;BME280;59810;48.800;9.086;2022-09-20T15:59:04;98229.97;;;17.07;41.80
71938;BME280;59810;48.800;9.086;2022-09-20T16:01:40;98228.91;;;16.17;44.38
71938;BME280;59810;48.800;9.086;2022-09-20T16:04:08;98226.09;;;15.61;45.70
71938;BME280;59810;48.800;9.086;2022-09-20T16:06:37;98229.53;;;15.41;46.59
71938;BME280;59810;48.800;9.086;2022-09-20T16:09:03;98233.72;;;15.07;47.17
71938;BME280;59810;48.800;9.086;2022-09-20T16:11:29;98234.38;;;14.82;47.49
71938;BME280;59810;48.800;9.086;2022-09-20T16:13:56;98232.28;;;14.57;48.85
71938;BME280;59810;48.800;9.086;2022-09-20T16:16:22;98233.50;;;14.39;50.03
71938;BME280;59810;48.800;9.086;2022-09-20T16:18:48;98229.78;;;14.18;49.77
71938;BME280;59810;48.800;9.086;2022-09-20T16:21:32;98229.50;;;13.88;51.30
71938;BME280;59810;48.800;9.086;2022-09-20T16:24:00;98232.06;;;13.73;51.99
71938;BME280;59810;48.800;9.086;2022-09-20T16:26:28;98245.75;;;13.61;52.32
71938;BME280;59810;48.800;9.086;2022-09-20T16:28:55;98242.13;;;13.50;53.18
71938;BME280;59810;48.800;9.086;2022-09-20T16:31:31;98247.22;;;13.47;53.48
71938;BME280;59810;48.800;9.086;2022-09-20T16:34:03;98236.25;;;13.36;54.72
71938;BME280;59810;48.800;9.086;2022-09-20T16:36:32;98239.28;;;13.18;54.96
71938;BME280;59810;48.800;9.086;2022-09-20T16:39:00;98249.91;;;13.03;55.93
71938;BME280;59810;48.800;9.086;2022-09-20T16:41:27;98251.44;;;12.99;57.13
71938;BME280;59810;48.800;9.086;2022-09-20T16:43:55;98253.00;;;12.95;57.45
71938;BME280;59810;48.800;9.086;2022-09-20T16:46:22;98257.88;;;12.93;58.10
71938;BME280;59810;48.800;9.086;2022-09-20T16:48:54;98254.03;;;12.89;58.87
71938;BME280;59810;48.800;9.086;2022-09-20T16:51:24;98258.72;;;12.76;60.98
71938;BME280;59810;48.800;9.086;2022-09-20T16:53:53;98253.97;;;12.67;60.08
71938;BME280;59810;48.800;9.086;2022-09-20T16:56:24;98260.81;;;12.69;59.44
71938;BME280;59810;48.800;9.086;2022-09-20T16:58:50;98253.00;;;12.56;60.61
71938;BME280;59810;48.800;9.086;2022-09-20T17:01:16;98261.38;;;12.55;60.67
71938;BME280;59810;48.800;9.086;2022-09-20T17:03:44;98262.44;;;12.54;61.48
71938;BME280;59810;48.800;9.086;2022-09-20T17:06:11;98259.16;;;12.52;60.38
71938;BME280;59810;48.800;9.086;2022-09-20T17:08:41;98259.16;;;12.52;60.25
71938;BME280;59810;48.800;9.086;2022-09-20T17:11:35;98265.97;;;12.54;60.96
71938;BME280;59810;48.800;9.086;2022-09-20T17:14:24;98259.91;;;12.47;61.28
71938;BME280;59810;48.800;9.086;2022-09-20T17:17:04;98261.38;;;12.38;62.25
71938;BME280;59810;48.800;9.086;2022-09-20T17:19:45;98268.94;;;12.36;63.80
71938;BME280;59810;48.800;9.086;2022-09-20T17:22:10;98273.16;;;12.32;63.98
71938;BME280;59810;48.800;9.086;2022-09-20T17:24:46;98285.63;;;12.33;64.48
71938;BME280;59810;48.800;9.086;2022-09-20T17:27:40;98286.72;;;12.32;65.62
71938;BME280;59810;48.800;9.086;2022-09-20T17:30:26;98290.63;;;12.24;64.44
71938;BME280;59810;48.800;9.086;2022-09-20T17:32:51;98288.75;;;12.25;64.96
71938;BME280;59810;48.800;9.086;2022-09-20T17:35:19;98291.38;;;12.20;66.19
71938;BME280;59810;48.800;9.086;2022-09-20T17:37:48;98291.38;;;12.20;66.37
71938;BME280;59810;48.800;9.086;2022-09-20T17:40:13;98294.09;;;12.20;65.93
71938;BME280;59810;48.800;9.086;2022-09-20T17:42:39;98291.28;;;12.14;65.91
71938;BME280;59810;48.800;9.086;2022-09-20T17:45:06;98293.19;;;12.14;65.91
71938;BME280;59810;48.800;9.086;2022-09-20T17:47:31;98293.91;;;12.09;65.90
71938;BME280;59810;48.800;9.086;2022-09-20T17:49:56;98296.28;;;12.06;66.17
71938;BME280;59810;48.800;9.086;2022-09-20T17:52:22;98295.09;;;12.02;66.59
71938;BME280;59810;48.800;9.086;2022-09-20T17:54:49;98306.66;;;11.97;67.54
71938;BME280;59810;48.800;9.086;2022-09-20T17:57:15;98303.19;;;11.85;68.11
71938;BME280;59810;48.800;9.086;2022-09-20T17:59:40;98305.06;;;11.84;67.80
71938;BME280;59810;48.800;9.086;2022-09-20T18:02:05;98301.47;;;11.79;67.69
71938;BME280;59810;48.800;9.086;2022-09-20T18:04:31;98297.81;;;11.73;68.05
71938;BME280;59810;48.800;9.086;2022-09-20T18:06:56;98316.38;;;11.70;68.95
71938;BME280;59810;48.800;9.086;2022-09-20T18:09:23;98309.22;;;11.64;69.73
71938;BME280;59810;48.800;9.086;2022-09-20T18:11:51;98311.59;;;11.60;70.29
71938;BME280;59810;48.800;9.086;2022-09-20T18:14:19;98322.09;;;11.33;73.46
71938;BME280;59810;48.800;9.086;2022-09-20T18:16:50;98323.28;;;11.26;73.70
71938;BME280;59810;48.800;9.086;2022-09-20T18:19:16;98322.38;;;11.20;73.47
71938;BME280;59810;48.800;9.086;2022-09-20T18:21:42;98325.53;;;11.17;73.77